createdAt,value
2022-11-12T00:03:11.986Z,39.95
2022-11-12T00:06:33.959Z,38.92
2022-11-12T00:09:57.254Z,39.85
2022-11-12T00:13:19.270Z,40.47
2022-11-12T00:16:41.472Z,40.65
2022-11-12T00:20:03.473Z,41.45
2022-11-12T00:23:25.364Z,41.50
2022-11-12T00:26:48.507Z,40.60
2022-11-12T00:30:11.141Z,40.63
2022-11-12T00:33:33.164Z,40.78
2022-11-12T00:36:55.290Z,42.55
2022-11-12T00:40:18.220Z,44.05
2022-11-12T00:43:41.421Z,41.08
2022-11-12T00:47:03.142Z,40.85
2022-11-12T00:50:25.743Z,41.40
2022-11-12T00:53:49.022Z,40.80
2022-11-12T00:57:10.532Z,41.00
2022-11-12T01:00:33.454Z,41.53
2022-11-12T01:03:55.748Z,41.00
2022-11-12T01:07:17.559Z,41.45
2022-11-12T01:10:39.176Z,42.03
2022-11-12T01:14:03.043Z,41.30
2022-11-12T01:17:26.244Z,43.47
2022-11-12T01:20:48.041Z,41.92
2022-11-12T01:24:10.991Z,41.85
2022-11-12T01:27:34.858Z,42.83
2022-11-12T01:30:56.680Z,40.92
2022-11-12T01:34:19.930Z,42.03
2022-11-12T01:37:41.727Z,41.63
2022-11-12T01:41:04.115Z,43.95
2022-11-12T01:44:29.175Z,41.80
2022-11-12T01:47:53.024Z,40.25
2022-11-12T01:51:17.188Z,42.03
2022-11-12T01:54:39.676Z,42.55
2022-11-12T01:58:06.817Z,42.30
2022-11-12T02:01:28.460Z,42.63
2022-11-12T02:04:51.543Z,41.53
2022-11-12T02:08:15.373Z,41.35
2022-11-12T02:11:37.252Z,40.80
2022-11-12T02:14:57.783Z,40.83
2022-11-12T02:18:19.385Z,41.40
2022-11-12T02:21:43.116Z,40.83
2022-11-12T02:25:06.304Z,41.20
2022-11-12T02:28:29.696Z,40.38
2022-11-12T02:31:51.573Z,39.83
2022-11-12T02:35:13.641Z,40.08
2022-11-12T02:38:36.979Z,38.58
2022-11-12T02:41:58.882Z,38.08
2022-11-12T02:45:21.064Z,39.08
2022-11-12T02:48:42.809Z,38.70
2022-11-12T02:52:05.015Z,37.80
2022-11-12T02:55:28.162Z,37.05
2022-11-12T02:58:49.868Z,38.85
2022-11-12T03:02:11.435Z,37.13
2022-11-12T03:05:34.936Z,36.72
2022-11-12T03:08:56.431Z,38.63
2022-11-12T03:12:19.341Z,37.95
2022-11-12T03:15:40.963Z,37.45
2022-11-12T03:19:02.862Z,37.08
2022-11-12T03:22:24.568Z,37.13
2022-11-12T03:25:46.210Z,35.60
2022-11-12T03:29:09.253Z,36.58
2022-11-12T03:32:31.114Z,36.55
2022-11-12T03:35:52.980Z,36.42
2022-11-12T03:39:14.960Z,36.70
2022-11-12T03:42:36.584Z,34.95
2022-11-12T03:45:59.556Z,36.20
2022-11-12T03:49:21.442Z,36.08
2022-11-12T03:52:46.313Z,37.28
2022-11-12T03:56:08.330Z,36.05
2022-11-12T03:59:29.996Z,36.42
2022-11-12T04:02:53.396Z,36.53
2022-11-12T04:06:32.147Z,35.25
2022-11-12T04:09:54.072Z,35.03
2022-11-12T04:13:31.364Z,36.05
2022-11-12T04:17:10.255Z,34.33
2022-11-12T04:20:51.096Z,35.55
2022-11-12T04:24:32.842Z,36.92
2022-11-12T04:27:54.742Z,37.65
2022-11-12T04:31:15.236Z,36.40
2022-11-12T04:38:22.331Z,37.63
2022-11-12T04:42:01.810Z,38.63
2022-11-12T04:45:23.933Z,38.42
2022-11-12T04:48:46.048Z,37.67
2022-11-12T04:52:10.735Z,40.20
2022-11-12T04:55:33.973Z,39.05
2022-11-12T04:58:56.003Z,38.83
2022-11-12T05:02:18.961Z,38.97
2022-11-12T05:05:40.871Z,37.67
2022-11-12T05:09:02.886Z,39.53
2022-11-12T05:12:27.428Z,38.70
2022-11-12T05:15:49.053Z,40.05
2022-11-12T05:19:10.880Z,40.58
2022-11-12T05:22:43.343Z,38.47
2022-11-12T05:26:07.584Z,38.83
2022-11-12T05:29:30.584Z,39.28
2022-11-12T05:32:52.099Z,39.45
2022-11-12T05:36:13.708Z,39.03
2022-11-12T05:39:35.384Z,39.50
2022-11-12T05:42:57.110Z,38.15
2022-11-12T05:46:20.404Z,37.50
2022-11-12T05:49:41.968Z,36.88
2022-11-12T05:53:03.652Z,34.80
2022-11-12T05:56:25.193Z,36.85
2022-11-12T05:59:46.902Z,37.78
2022-11-12T06:03:11.358Z,37.80
2022-11-12T06:06:33.097Z,37.13
2022-11-12T06:09:54.761Z,38.20
2022-11-12T06:13:16.945Z,37.17
2022-11-12T06:16:38.527Z,38.35
2022-11-12T06:20:02.590Z,38.35
2022-11-12T06:23:24.329Z,35.45
2022-11-12T06:26:46.043Z,37.25
2022-11-12T06:30:09.966Z,36.65
2022-11-12T06:33:32.041Z,37.78
2022-11-12T06:36:55.279Z,34.83
2022-11-12T06:40:17.183Z,34.40
2022-11-12T06:43:39.072Z,36.55
2022-11-12T06:47:00.838Z,34.63
2022-11-12T06:50:22.761Z,35.25
2022-11-12T06:53:46.399Z,33.88
2022-11-12T06:57:08.216Z,33.45
2022-11-12T07:00:29.926Z,32.33
2022-11-12T07:03:54.050Z,31.77
2022-11-12T07:07:15.697Z,32.97
2022-11-12T07:10:38.912Z,30.50
2022-11-12T07:14:01.002Z,29.73
2022-11-12T07:17:23.142Z,31.50
2022-11-12T07:20:44.827Z,29.67
2022-11-12T07:24:06.711Z,29.60
2022-11-12T07:27:32.429Z,29.45
2022-11-12T07:30:58.722Z,27.98
2022-11-12T07:34:20.542Z,26.17
2022-11-12T07:37:42.262Z,26.90
2022-11-12T07:41:05.870Z,27.38
2022-11-12T07:44:29.167Z,25.30
2022-11-12T07:47:50.628Z,25.75
2022-11-12T07:51:14.913Z,27.20
2022-11-12T07:54:36.865Z,27.15
2022-11-12T07:58:00.600Z,33.13
2022-11-12T08:01:31.499Z,26.83
2022-11-12T08:04:54.146Z,25.58
2022-11-12T08:08:15.733Z,23.30
2022-11-12T08:11:37.679Z,24.90
2022-11-12T08:14:59.489Z,29.20
2022-11-12T08:18:28.143Z,26.63
2022-11-12T08:22:02.735Z,33.17
2022-11-12T08:33:08.415Z,30.02
2022-11-12T08:37:18.327Z,32.83
2022-11-12T08:40:42.641Z,28.33
2022-11-12T08:44:08.465Z,25.88
2022-11-12T08:47:30.863Z,23.90
2022-11-12T08:50:52.826Z,25.60
2022-11-12T08:54:18.666Z,27.15
2022-11-12T08:57:44.663Z,22.92
2022-11-12T09:01:09.138Z,19.10
2022-11-12T09:04:31.097Z,23.38
2022-11-12T09:07:58.840Z,23.15
2022-11-12T09:11:22.128Z,22.98
2022-11-12T09:14:44.075Z,20.85
2022-11-12T09:18:08.064Z,24.65
2022-11-12T09:21:29.969Z,18.52
2022-11-12T09:24:52.093Z,15.40
2022-11-12T09:28:17.051Z,11.30
2022-11-12T09:31:39.060Z,13.73
2022-11-12T09:35:00.995Z,11.32
2022-11-12T09:38:23.366Z,12.73
2022-11-12T09:41:45.229Z,15.85
2022-11-12T09:45:15.378Z,13.73
2022-11-12T09:52:07.226Z,14.13
2022-11-12T09:55:34.347Z,14.57
2022-11-12T09:58:56.372Z,14.20
2022-11-12T10:02:30.261Z,14.70
2022-11-12T10:05:59.900Z,14.75
2022-11-12T10:09:26.996Z,14.33
2022-11-12T10:13:05.021Z,16.13
2022-11-12T10:16:45.937Z,15.73
2022-11-12T10:20:18.556Z,15.00
2022-11-12T10:23:44.827Z,16.45
2022-11-12T10:27:18.443Z,17.15
2022-11-12T10:30:41.666Z,15.43
2022-11-12T10:34:16.991Z,15.65
2022-11-12T10:37:45.670Z,16.77
2022-11-12T10:41:22.391Z,15.95
2022-11-12T10:44:45.288Z,17.60
2022-11-12T10:48:26.004Z,21.05
2022-11-12T10:51:57.010Z,22.90
2022-11-12T10:55:24.040Z,21.48
2022-11-12T10:58:45.536Z,21.95
2022-11-12T11:02:18.108Z,19.58
2022-11-12T11:05:51.401Z,19.42
2022-11-12T11:09:20.570Z,19.35
2022-11-12T11:12:43.562Z,20.13
2022-11-12T11:16:07.700Z,20.27
2022-11-12T11:19:37.300Z,22.38
2022-11-12T11:23:05.223Z,22.92
2022-11-12T11:26:36.784Z,23.05
2022-11-12T11:30:11.894Z,23.75
2022-11-12T11:33:42.060Z,22.75
2022-11-12T11:37:19.224Z,20.63
2022-11-12T11:40:51.558Z,20.70
2022-11-12T11:44:23.216Z,20.77
2022-11-12T11:48:01.178Z,22.67
2022-11-12T11:51:43.769Z,27.92
2022-11-12T11:55:15.734Z,25.30
2022-11-12T11:59:01.552Z,22.02
2022-11-12T12:02:50.494Z,21.48
2022-11-12T12:06:26.552Z,20.90
2022-11-12T12:09:56.650Z,21.77
2022-11-12T12:13:29.762Z,20.40
2022-11-12T12:17:02.911Z,19.52
2022-11-12T12:20:33.921Z,19.42
2022-11-12T12:24:01.223Z,22.95
2022-11-12T12:27:27.110Z,30.58
2022-11-12T12:30:56.111Z,31.55
2022-11-12T12:34:22.485Z,32.80
2022-11-12T12:37:54.239Z,35.33
2022-11-12T12:41:20.870Z,31.15
2022-11-12T12:45:05.025Z,27.73
2022-11-12T12:48:32.103Z,29.27
2022-11-12T12:51:55.903Z,31.00
2022-11-12T12:55:37.561Z,31.42
2022-11-12T12:59:03.697Z,27.25
2022-11-12T13:02:26.611Z,32.00
2022-11-12T13:06:08.853Z,32.15
2022-11-12T13:09:30.822Z,31.08
2022-11-12T13:13:35.650Z,27.98
2022-11-12T13:16:59.994Z,37.10
2022-11-12T13:20:43.228Z,31.80
2022-11-12T13:24:11.130Z,31.50
2022-11-12T13:28:10.113Z,31.88
2022-11-12T13:31:34.080Z,31.77
2022-11-12T13:35:31.920Z,27.92
2022-11-12T13:38:58.802Z,28.85
2022-11-12T13:42:54.076Z,30.40
2022-11-12T13:46:27.488Z,30.52
2022-11-12T13:49:50.094Z,31.00
2022-11-12T13:53:20.252Z,31.35
2022-11-12T14:00:20.941Z,34.55
2022-11-12T14:03:47.399Z,36.72
2022-11-12T14:07:20.918Z,37.25
2022-11-12T14:10:51.341Z,38.25
2022-11-12T14:17:49.316Z,39.10
2022-11-12T14:21:17.997Z,40.45
2022-11-12T14:24:40.615Z,39.05
2022-11-12T14:28:02.611Z,35.00
2022-11-12T14:31:26.288Z,35.20
2022-11-12T14:34:48.561Z,35.28
2022-11-12T14:38:19.705Z,36.92
2022-11-12T14:41:46.139Z,34.53
2022-11-12T14:45:18.015Z,33.53
2022-11-12T14:48:48.901Z,33.25
2022-11-12T14:52:15.124Z,33.55
2022-11-12T14:55:41.997Z,39.90
2022-11-12T14:59:05.316Z,35.55
2022-11-12T15:02:53.433Z,37.80
2022-11-12T15:06:16.858Z,47.33
2022-11-12T15:09:40.526Z,58.30
2022-11-12T15:13:05.956Z,36.03
2022-11-12T15:16:30.624Z,38.78
2022-11-12T15:19:52.854Z,39.08
2022-11-12T15:23:20.391Z,39.92
2022-11-12T15:26:45.324Z,41.28
2022-11-12T15:30:17.499Z,45.13
2022-11-12T15:33:39.587Z,49.22
2022-11-12T15:37:06.258Z,48.28
2022-11-12T15:40:28.607Z,42.65
2022-11-12T15:43:50.718Z,43.85
2022-11-12T15:47:21.468Z,46.90
2022-11-12T15:50:43.764Z,47.75
2022-11-12T15:54:06.298Z,48.70
2022-11-12T15:57:31.341Z,46.47
2022-11-12T16:00:53.868Z,45.55
2022-11-12T16:04:17.392Z,51.53
2022-11-12T16:07:39.653Z,48.67
2022-11-12T16:11:01.764Z,57.70
2022-11-12T16:14:25.131Z,69.10
2022-11-12T16:17:49.593Z,50.33
2022-11-12T16:21:20.508Z,55.45
2022-11-12T16:24:43.006Z,55.97
2022-11-12T16:28:07.814Z,74.80
2022-11-12T16:31:29.739Z,66.40
2022-11-12T16:34:52.451Z,74.60
2022-11-12T16:38:19.389Z,67.32
2022-11-12T16:41:41.045Z,70.43
2022-11-12T16:45:02.972Z,78.75
2022-11-12T16:48:24.866Z,73.47
2022-11-12T16:51:47.125Z,66.13
2022-11-12T16:55:11.171Z,65.07
2022-11-12T16:58:35.120Z,78.00
2022-11-12T17:01:57.040Z,70.35
2022-11-12T17:05:21.115Z,77.20
2022-11-12T17:08:44.587Z,76.30
2022-11-12T17:12:09.035Z,87.30
2022-11-12T17:15:30.875Z,92.47
2022-11-12T17:18:55.575Z,95.00
2022-11-12T17:22:19.966Z,100.22
2022-11-12T17:25:41.931Z,99.72
2022-11-12T17:29:08.274Z,91.28
2022-11-12T17:32:30.579Z,85.07
2022-11-12T17:35:52.740Z,78.38
2022-11-12T17:39:15.011Z,77.13
2022-11-12T17:42:37.038Z,74.25
2022-11-12T17:46:01.107Z,77.90
2022-11-12T17:49:22.930Z,68.57
2022-11-12T17:52:46.807Z,65.72
2022-11-12T17:56:11.086Z,64.43
2022-11-12T17:59:33.208Z,64.93
2022-11-12T18:02:57.342Z,62.75
2022-11-12T18:06:21.566Z,61.95
2022-11-12T18:09:43.640Z,60.38
2022-11-12T18:13:06.023Z,64.80
2022-11-12T18:16:29.294Z,68.95
2022-11-12T18:19:53.070Z,56.53
2022-11-12T18:23:15.158Z,57.95
2022-11-12T18:26:38.383Z,53.78
2022-11-12T18:30:01.389Z,54.80
2022-11-12T18:33:23.315Z,58.63
2022-11-12T18:36:47.137Z,52.60
2022-11-12T18:40:09.951Z,50.55
2022-11-12T18:43:32.163Z,48.67
2022-11-12T18:46:56.026Z,51.92
2022-11-12T18:50:19.342Z,50.58
2022-11-12T18:53:44.093Z,52.45
2022-11-12T18:57:07.643Z,52.72
2022-11-12T19:00:29.845Z,50.15
2022-11-12T19:04:03.569Z,49.67
2022-11-12T19:07:25.429Z,49.20
2022-11-12T19:10:48.740Z,49.05
2022-11-12T19:14:11.783Z,50.92
2022-11-12T19:17:33.993Z,52.25
2022-11-12T19:21:03.280Z,51.25
2022-11-12T19:24:25.454Z,49.28
2022-11-12T19:27:49.163Z,48.03
2022-11-12T19:31:15.402Z,47.10
2022-11-12T19:34:37.116Z,48.50
2022-11-12T19:37:58.742Z,46.75
2022-11-12T19:41:20.439Z,56.28
2022-11-12T19:44:43.494Z,46.33
2022-11-12T19:48:06.050Z,44.75
2022-11-12T19:51:28.474Z,46.22
2022-11-12T19:54:50.316Z,46.20
2022-11-12T19:58:12.364Z,48.13
2022-11-12T20:01:35.736Z,45.10
2022-11-12T20:04:57.385Z,48.85
2022-11-12T20:08:21.546Z,44.97
2022-11-12T20:11:44.243Z,41.55
2022-11-12T20:15:09.225Z,42.50
2022-11-12T20:18:37.842Z,43.60
2022-11-12T20:22:00.832Z,42.25
2022-11-12T20:25:24.976Z,44.50
2022-11-12T20:28:59.004Z,42.13
2022-11-12T20:32:22.109Z,42.95
2022-11-12T20:35:46.943Z,41.05
2022-11-12T20:39:10.562Z,42.67
2022-11-12T20:42:32.972Z,46.15
2022-11-12T20:45:55.001Z,43.25
2022-11-12T20:49:17.344Z,46.72
2022-11-12T20:52:42.104Z,46.80
2022-11-12T20:56:10.358Z,44.42
2022-11-12T20:59:32.340Z,48.63
2022-11-12T21:02:54.155Z,45.60
2022-11-12T21:06:19.060Z,46.15
2022-11-12T21:09:43.341Z,45.63
2022-11-12T21:13:05.165Z,46.90
2022-11-12T21:16:27.964Z,59.85
2022-11-12T21:19:52.623Z,60.15
2022-11-12T21:23:16.172Z,51.00
2022-11-12T21:26:45.744Z,66.28
2022-11-12T21:30:11.443Z,35.03
2022-11-12T21:33:33.359Z,44.58
2022-11-12T21:36:56.512Z,44.13
2022-11-12T21:40:20.130Z,44.05
2022-11-12T21:43:45.666Z,44.42
2022-11-12T21:47:07.621Z,47.83
2022-11-12T21:50:32.133Z,45.13
2022-11-12T21:53:58.347Z,45.17
2022-11-12T21:57:20.334Z,45.92
2022-11-12T22:00:43.243Z,45.22
2022-11-12T22:04:08.373Z,45.92
2022-11-12T22:07:30.242Z,46.17
2022-11-12T22:10:51.807Z,48.13
2022-11-12T22:14:13.286Z,47.63
2022-11-12T22:17:36.506Z,48.78
2022-11-12T22:20:58.963Z,49.95
2022-11-12T22:24:20.968Z,47.75
2022-11-12T22:27:42.696Z,47.05
2022-11-12T22:31:05.428Z,50.10
2022-11-12T22:34:28.774Z,51.00
2022-11-12T22:37:50.530Z,49.22
2022-11-12T22:41:14.159Z,46.50
2022-11-12T22:44:36.101Z,45.58
2022-11-12T22:48:00.046Z,46.22
2022-11-12T22:51:25.224Z,46.35
2022-11-12T22:54:46.823Z,44.65
2022-11-12T22:58:09.073Z,44.92
2022-11-12T23:01:34.096Z,44.35
2022-11-12T23:04:56.195Z,44.15
2022-11-12T23:08:19.219Z,44.80
2022-11-12T23:11:40.926Z,45.42
2022-11-12T23:15:03.066Z,45.35
2022-11-12T23:18:25.123Z,44.85
2022-11-12T23:21:47.945Z,45.47
2022-11-12T23:25:11.905Z,46.08
2022-11-12T23:28:34.780Z,46.67
2022-11-12T23:31:56.858Z,47.13
2022-11-12T23:35:18.905Z,49.15
2022-11-12T23:38:41.085Z,49.55
2022-11-12T23:42:04.485Z,48.58
2022-11-12T23:45:26.247Z,50.67
2022-11-12T23:48:48.536Z,49.95
2022-11-12T23:52:10.285Z,51.05
2022-11-12T23:55:36.081Z,54.08
2022-11-12T23:59:02.277Z,53.22
